createdAt,value
2019-03-24T00:00:13.279Z,51.23
2019-03-24T00:02:42.647Z,46.77
2019-03-24T00:05:12.035Z,44.77
2019-03-24T00:07:41.439Z,47.38
2019-03-24T00:10:10.940Z,47.60
2019-03-24T00:12:40.499Z,43.45
2019-03-24T00:15:10.698Z,42.87
2019-03-24T00:17:40.077Z,46.53
2019-03-24T00:20:10.463Z,43.93
2019-03-24T00:22:39.948Z,40.95
2019-03-24T00:25:09.679Z,42.20
2019-03-24T00:27:39.051Z,44.00
2019-03-24T00:30:11.851Z,44.37
2019-03-24T00:32:41.232Z,45.47
2019-03-24T00:35:11.224Z,46.90
2019-03-24T00:37:40.601Z,39.47
2019-03-24T00:40:10.329Z,42.78
2019-03-24T00:42:39.711Z,43.37
2019-03-24T00:45:10.447Z,37.63
2019-03-24T00:47:39.823Z,41.47
2019-03-24T00:50:09.608Z,44.77
2019-03-24T00:52:38.978Z,38.07
2019-03-24T00:55:09.097Z,38.67
2019-03-24T00:57:38.471Z,38.00
2019-03-24T01:00:11.676Z,36.90
2019-03-24T01:02:41.055Z,39.80
2019-03-24T01:05:10.508Z,39.17
2019-03-24T01:07:40.035Z,33.20
2019-03-24T01:10:28.758Z,39.13
2019-03-24T01:12:58.132Z,33.80
2019-03-24T01:15:27.520Z,29.23
2019-03-24T01:17:57.453Z,29.40
2019-03-24T01:20:27.046Z,32.47
2019-03-24T01:22:56.417Z,31.23
2019-03-24T01:25:26.083Z,24.97
2019-03-24T01:27:55.792Z,26.87
2019-03-24T01:30:25.165Z,25.47
2019-03-24T01:32:54.559Z,30.93
2019-03-24T01:35:23.928Z,29.90
2019-03-24T01:37:53.316Z,27.15
2019-03-24T01:40:23.039Z,23.53
2019-03-24T01:42:52.423Z,23.07
2019-03-24T01:45:21.801Z,24.30
2019-03-24T01:47:51.188Z,24.43
2019-03-24T01:50:20.561Z,22.80
2019-03-24T01:52:49.940Z,17.77
2019-03-24T01:55:19.322Z,22.77
2019-03-24T01:57:49.022Z,20.23
2019-03-24T02:00:18.395Z,19.67
2019-03-24T02:02:47.781Z,16.07
2019-03-24T02:05:17.165Z,16.37
2019-03-24T02:07:46.913Z,16.07
2019-03-24T02:10:18.656Z,18.65
2019-03-24T02:12:48.043Z,20.48
2019-03-24T02:15:17.823Z,17.00
2019-03-24T02:17:47.223Z,16.43
2019-03-24T02:20:17.104Z,19.37
2019-03-24T02:22:46.552Z,17.13
2019-03-24T02:25:15.925Z,18.60
2019-03-24T02:27:45.321Z,21.33
2019-03-24T02:30:16.306Z,16.93
2019-03-24T02:32:45.692Z,18.87
2019-03-24T02:35:15.082Z,17.77
2019-03-24T02:37:44.475Z,22.10
2019-03-24T02:40:14.256Z,14.95
2019-03-24T02:42:43.660Z,20.23
2019-03-24T02:45:13.627Z,17.67
2019-03-24T02:47:43.013Z,17.30
2019-03-24T02:50:12.599Z,18.97
2019-03-24T02:52:42.311Z,15.87
2019-03-24T02:55:12.434Z,18.95
2019-03-24T02:57:41.818Z,14.83
2019-03-24T03:00:11.806Z,19.60
2019-03-24T03:02:41.179Z,23.27
2019-03-24T03:05:11.493Z,18.43
2019-03-24T03:07:41.190Z,18.17
2019-03-24T03:10:11.489Z,22.30
2019-03-24T03:12:40.859Z,22.73
2019-03-24T03:15:11.954Z,20.30
2019-03-24T03:17:41.338Z,19.53
2019-03-24T03:20:11.225Z,19.57
2019-03-24T03:22:40.866Z,22.07
2019-03-24T03:25:11.364Z,24.87
2019-03-24T03:27:40.746Z,19.33
2019-03-24T03:30:10.733Z,22.23
2019-03-24T03:32:40.127Z,28.87
2019-03-24T03:35:11.598Z,22.57
2019-03-24T03:37:41.215Z,22.90
2019-03-24T03:40:11.400Z,25.70
2019-03-24T03:42:40.901Z,25.37
2019-03-24T03:45:29.860Z,22.37
2019-03-24T03:47:59.575Z,20.13
2019-03-24T03:50:29.280Z,25.57
2019-03-24T03:52:58.670Z,21.27
2019-03-24T03:55:28.060Z,24.33
2019-03-24T03:57:57.434Z,20.32
2019-03-24T04:00:33.214Z,27.58
2019-03-24T04:03:03.404Z,30.23
2019-03-24T04:05:32.794Z,26.27
2019-03-24T04:08:02.909Z,30.50
2019-03-24T04:10:32.287Z,21.43
2019-03-24T04:13:01.908Z,25.17
2019-03-24T04:15:31.295Z,17.00
2019-03-24T04:18:00.992Z,20.87
2019-03-24T04:20:30.383Z,24.57
2019-03-24T04:23:00.106Z,24.27
2019-03-24T04:25:29.809Z,30.20
2019-03-24T04:27:59.414Z,23.03
2019-03-24T04:30:28.803Z,27.80
2019-03-24T04:32:58.177Z,24.80
2019-03-24T04:35:27.578Z,26.03
2019-03-24T04:37:56.962Z,23.00
2019-03-24T04:40:26.338Z,22.27
2019-03-24T04:42:55.725Z,23.13
2019-03-24T04:45:25.107Z,28.40
2019-03-24T04:47:54.486Z,22.00
2019-03-24T04:50:23.871Z,32.67
2019-03-24T04:52:53.482Z,33.43
2019-03-24T04:55:22.876Z,21.87
2019-03-24T04:57:52.250Z,25.77
2019-03-24T05:00:26.247Z,25.07
2019-03-24T05:02:55.626Z,27.47
2019-03-24T05:05:25.282Z,27.67
2019-03-24T05:07:55.102Z,28.40
2019-03-24T05:10:28.714Z,18.73
2019-03-24T05:12:58.393Z,24.25
2019-03-24T05:15:27.781Z,22.83
2019-03-24T05:17:57.155Z,22.50
2019-03-24T05:20:26.532Z,21.83
2019-03-24T05:22:55.913Z,23.87
2019-03-24T05:25:25.280Z,27.93
2019-03-24T05:27:54.704Z,25.53
2019-03-24T05:30:24.042Z,24.52
2019-03-24T05:32:53.433Z,27.07
2019-03-24T05:35:22.810Z,24.70
2019-03-24T05:37:52.188Z,20.47
2019-03-24T05:40:22.704Z,24.87
2019-03-24T05:42:52.826Z,19.77
2019-03-24T05:45:22.195Z,27.00
2019-03-24T05:47:51.573Z,30.60
2019-03-24T05:50:20.962Z,23.57
2019-03-24T05:52:50.344Z,29.87
2019-03-24T05:55:19.958Z,30.53
2019-03-24T05:57:49.672Z,28.13
2019-03-24T06:00:19.126Z,27.03
2019-03-24T06:02:48.507Z,34.17
2019-03-24T06:05:18.164Z,35.87
2019-03-24T06:07:48.193Z,31.52
2019-03-24T06:10:17.561Z,35.10
2019-03-24T06:12:46.943Z,35.37
2019-03-24T06:15:16.388Z,27.25
2019-03-24T06:17:48.041Z,22.43
2019-03-24T06:20:17.176Z,26.33
2019-03-24T06:22:46.566Z,29.12
2019-03-24T06:25:15.943Z,32.13
2019-03-24T06:27:45.322Z,34.37
2019-03-24T06:30:15.440Z,27.45
2019-03-24T06:32:45.634Z,30.43
2019-03-24T06:35:15.073Z,29.27
2019-03-24T06:37:44.465Z,33.97
2019-03-24T06:40:14.047Z,32.03
2019-03-24T06:42:43.506Z,37.80
2019-03-24T06:45:13.013Z,34.50
2019-03-24T06:47:42.632Z,34.85
2019-03-24T06:50:12.542Z,22.90
2019-03-24T06:52:41.921Z,28.62
2019-03-24T06:55:11.678Z,40.13
2019-03-24T06:57:41.041Z,34.03
2019-03-24T07:00:12.437Z,36.70
2019-03-24T07:02:41.804Z,38.33
2019-03-24T07:05:11.799Z,27.80
2019-03-24T07:07:41.426Z,31.95
2019-03-24T07:10:12.022Z,30.63
2019-03-24T07:12:41.391Z,29.20
2019-03-24T07:15:10.903Z,25.77
2019-03-24T07:17:40.620Z,31.23
2019-03-24T07:20:10.610Z,37.13
2019-03-24T07:22:39.984Z,28.63
2019-03-24T07:25:09.598Z,35.17
2019-03-24T07:27:38.984Z,38.78
2019-03-24T07:30:10.473Z,33.47
2019-03-24T07:32:40.137Z,35.23
2019-03-24T07:35:10.085Z,32.03
2019-03-24T07:37:39.459Z,28.13
2019-03-24T07:40:10.368Z,30.03
2019-03-24T07:42:39.984Z,28.83
2019-03-24T07:45:10.072Z,30.03
2019-03-24T07:47:39.444Z,26.80
2019-03-24T07:50:10.699Z,31.07
2019-03-24T07:52:40.066Z,31.75
2019-03-24T07:55:09.614Z,35.87
2019-03-24T07:57:39.003Z,26.97
2019-03-24T08:00:11.555Z,38.67
2019-03-24T08:02:51.512Z,29.13
2019-03-24T08:05:20.916Z,29.17
2019-03-24T08:07:50.295Z,45.87
2019-03-24T08:10:19.688Z,36.43
2019-03-24T08:12:49.111Z,35.63
2019-03-24T08:15:18.513Z,43.33
2019-03-24T08:17:47.889Z,43.97
2019-03-24T08:20:17.289Z,38.88
2019-03-24T08:22:46.657Z,37.27
2019-03-24T08:25:16.044Z,42.40
2019-03-24T08:27:45.422Z,38.67
2019-03-24T08:30:18.258Z,43.50
2019-03-24T08:32:47.628Z,50.53
2019-03-24T08:35:17.430Z,50.10
2019-03-24T08:37:47.114Z,51.53
2019-03-24T08:40:16.504Z,45.60
2019-03-24T08:42:45.883Z,52.20
2019-03-24T08:45:30.493Z,49.13
2019-03-24T08:48:00.011Z,48.58
2019-03-24T08:50:29.469Z,44.67
2019-03-24T08:52:58.914Z,42.33
2019-03-24T08:55:28.295Z,39.23
2019-03-24T08:57:57.675Z,49.90
2019-03-24T09:00:30.867Z,42.63
2019-03-24T09:02:59.614Z,48.60
2019-03-24T09:05:29.513Z,45.07
2019-03-24T09:07:59.366Z,42.08
2019-03-24T09:10:29.391Z,39.88
2019-03-24T09:12:58.768Z,37.33
2019-03-24T09:15:28.144Z,34.07
2019-03-24T09:17:57.542Z,37.63
2019-03-24T09:20:26.919Z,35.70
2019-03-24T09:22:56.374Z,41.57
2019-03-24T09:25:25.781Z,36.70
2019-03-24T09:27:55.218Z,36.80
2019-03-24T09:30:33.206Z,36.28
2019-03-24T09:33:03.263Z,32.53
2019-03-24T09:35:32.726Z,31.30
2019-03-24T09:38:02.104Z,37.65
2019-03-24T09:40:34.682Z,27.07
2019-03-24T09:43:05.881Z,32.83
2019-03-24T09:45:35.394Z,33.43
2019-03-24T09:48:05.417Z,30.80
2019-03-24T09:50:34.798Z,32.03
2019-03-24T09:53:04.829Z,33.20
2019-03-24T09:55:34.200Z,33.20
2019-03-24T09:58:03.821Z,28.40
2019-03-24T10:00:33.518Z,32.97
2019-03-24T10:03:02.908Z,34.57
2019-03-24T10:05:32.278Z,33.13
2019-03-24T10:08:01.670Z,37.70
2019-03-24T10:10:31.049Z,40.93
2019-03-24T10:13:00.440Z,36.10
2019-03-24T10:15:29.819Z,39.90
2019-03-24T10:17:59.215Z,45.38
2019-03-24T10:20:28.595Z,40.83
2019-03-24T10:22:57.981Z,37.27
2019-03-24T10:25:27.429Z,39.57
2019-03-24T10:27:56.810Z,41.43
2019-03-24T10:30:26.188Z,43.13
2019-03-24T10:32:55.582Z,40.07
2019-03-24T10:35:24.960Z,38.57
2019-03-24T10:37:54.349Z,41.27
2019-03-24T10:40:28.732Z,34.93
2019-03-24T10:42:54.832Z,45.00
2019-03-24T10:45:24.228Z,38.27
2019-03-24T10:47:53.606Z,33.08
2019-03-24T10:50:23.293Z,37.30
2019-03-24T10:52:52.716Z,33.07
2019-03-24T10:55:22.062Z,31.77
2019-03-24T10:57:51.434Z,34.13
2019-03-24T11:00:37.988Z,31.97
2019-03-24T11:03:07.698Z,31.63
2019-03-24T11:05:37.078Z,27.17
2019-03-24T11:08:06.606Z,27.03
2019-03-24T11:10:35.994Z,29.87
2019-03-24T11:13:05.444Z,25.52
2019-03-24T11:15:34.847Z,22.77
2019-03-24T11:18:04.291Z,23.20
2019-03-24T11:20:33.677Z,25.00
2019-03-24T11:23:03.335Z,20.37
2019-03-24T11:25:32.745Z,21.53
2019-03-24T11:28:02.369Z,23.00
2019-03-24T11:30:31.768Z,24.90
2019-03-24T11:33:01.143Z,18.80
2019-03-24T11:35:30.534Z,20.47
2019-03-24T11:37:59.907Z,19.53
2019-03-24T11:40:29.298Z,19.97
2019-03-24T11:42:59.365Z,22.65
2019-03-24T11:45:28.797Z,19.27
2019-03-24T11:47:58.122Z,20.57
2019-03-24T11:50:27.513Z,17.37
2019-03-24T11:52:56.891Z,15.27
2019-03-24T11:55:26.283Z,12.07
2019-03-24T11:58:05.236Z,8.00
2019-03-24T12:00:35.532Z,8.90
2019-03-24T12:03:05.322Z,8.87
2019-03-24T12:05:34.773Z,12.47
2019-03-24T12:08:04.791Z,10.67
2019-03-24T12:10:34.247Z,17.50
2019-03-24T12:13:03.697Z,10.30
2019-03-24T12:15:33.161Z,11.40
2019-03-24T12:18:02.534Z,12.30
2019-03-24T12:20:31.935Z,13.22
2019-03-24T12:23:01.445Z,12.50
2019-03-24T12:25:30.823Z,13.57
2019-03-24T12:28:00.196Z,15.07
2019-03-24T12:30:29.641Z,12.13
2019-03-24T12:32:59.036Z,15.00
2019-03-24T12:35:28.424Z,15.18
2019-03-24T12:37:57.798Z,10.43
2019-03-24T12:40:27.201Z,11.57
2019-03-24T12:42:56.627Z,17.40
2019-03-24T12:45:26.015Z,12.73
2019-03-24T12:47:55.391Z,9.83
2019-03-24T12:50:31.408Z,12.03
2019-03-24T12:52:56.543Z,12.23
2019-03-24T12:55:26.247Z,12.13
2019-03-24T12:57:55.675Z,9.83
2019-03-24T13:00:36.850Z,11.20
2019-03-24T13:03:06.837Z,8.87
2019-03-24T13:05:36.285Z,13.97
2019-03-24T13:08:15.754Z,10.03
2019-03-24T13:10:46.657Z,11.10
2019-03-24T13:13:16.162Z,7.77
2019-03-24T13:15:45.616Z,8.17
2019-03-24T13:18:15.266Z,11.70
2019-03-24T13:20:44.672Z,9.35
2019-03-24T13:23:14.060Z,8.55
2019-03-24T13:25:43.431Z,16.67
2019-03-24T13:28:12.838Z,8.47
2019-03-24T13:30:42.210Z,8.60
2019-03-24T13:33:11.595Z,11.90
2019-03-24T13:35:40.971Z,10.77
2019-03-24T13:38:10.612Z,9.87
2019-03-24T13:40:39.981Z,7.70
2019-03-24T13:43:10.220Z,11.85
2019-03-24T13:45:39.598Z,8.57
2019-03-24T13:48:09.294Z,9.93
2019-03-24T13:50:38.667Z,7.57
2019-03-24T13:53:08.130Z,18.37
2019-03-24T13:55:37.742Z,49.17
2019-03-24T13:58:07.394Z,46.60
2019-03-24T14:00:36.777Z,26.37
2019-03-24T14:03:06.252Z,42.05
2019-03-24T14:05:35.651Z,42.67
2019-03-24T14:08:05.165Z,9.57
2019-03-24T14:10:34.801Z,11.17
2019-03-24T14:13:04.204Z,11.90
2019-03-24T14:15:33.586Z,11.40
2019-03-24T14:18:03.072Z,12.77
2019-03-24T14:20:42.677Z,6.75
2019-03-24T14:23:03.795Z,9.17
2019-03-24T14:25:33.165Z,7.90
2019-03-24T14:28:02.560Z,7.47
2019-03-24T14:30:46.935Z,7.23
2019-03-24T14:33:16.926Z,7.20
2019-03-24T14:35:46.641Z,7.97
2019-03-24T14:38:16.184Z,6.80
2019-03-24T14:40:45.621Z,6.90
2019-03-24T14:43:15.188Z,12.63
2019-03-24T14:45:44.596Z,7.67
2019-03-24T14:48:14.275Z,6.77
2019-03-24T14:50:54.016Z,7.57
2019-03-24T14:53:14.839Z,12.30
2019-03-24T14:55:44.213Z,9.37
2019-03-24T14:58:13.612Z,7.55
2019-03-24T15:00:44.104Z,8.78
2019-03-24T15:03:13.992Z,7.43
2019-03-24T15:05:43.431Z,6.80
2019-03-24T15:08:12.940Z,9.97
2019-03-24T15:10:42.345Z,9.40
2019-03-24T15:13:11.962Z,7.53
2019-03-24T15:15:41.347Z,6.90
2019-03-24T15:18:10.734Z,9.50
2019-03-24T15:20:40.374Z,7.58
2019-03-24T15:23:09.918Z,8.93
2019-03-24T15:25:39.685Z,6.33
2019-03-24T15:28:09.087Z,7.57
2019-03-24T15:30:38.712Z,8.83
2019-03-24T15:33:08.077Z,7.43
2019-03-24T15:35:37.486Z,9.33
2019-03-24T15:38:08.720Z,6.72
2019-03-24T15:40:37.970Z,7.90
2019-03-24T15:43:07.349Z,10.15
2019-03-24T15:45:37.030Z,5.83
2019-03-24T15:48:06.490Z,7.40
2019-03-24T15:50:35.873Z,4.47
2019-03-24T15:53:05.619Z,8.88
2019-03-24T15:55:35.001Z,9.68
2019-03-24T15:58:04.617Z,8.17
2019-03-24T16:00:49.579Z,5.10
2019-03-24T16:03:19.000Z,5.90
2019-03-24T16:05:48.780Z,6.00
2019-03-24T16:08:18.242Z,4.80
2019-03-24T16:10:47.630Z,6.45
2019-03-24T16:13:17.004Z,5.10
2019-03-24T16:15:46.393Z,4.13
2019-03-24T16:18:15.775Z,6.50
2019-03-24T16:20:45.191Z,6.37
2019-03-24T16:23:14.599Z,4.37
2019-03-24T16:25:43.968Z,7.37
2019-03-24T16:28:13.355Z,6.97
2019-03-24T16:30:42.827Z,8.80
2019-03-24T16:33:12.186Z,5.53
2019-03-24T16:35:41.577Z,7.93
2019-03-24T16:38:11.015Z,4.30
2019-03-24T16:40:41.499Z,5.90
2019-03-24T16:43:10.937Z,6.43
2019-03-24T16:45:40.311Z,6.97
2019-03-24T16:48:09.692Z,4.90
2019-03-24T16:50:39.078Z,7.28
2019-03-24T16:53:09.334Z,8.38
2019-03-24T16:55:38.728Z,5.07
2019-03-24T16:58:08.442Z,6.13
2019-03-24T17:00:37.817Z,4.70
2019-03-24T17:03:07.199Z,5.83
2019-03-24T17:05:36.581Z,5.80
2019-03-24T17:08:05.983Z,7.13
2019-03-24T17:10:35.374Z,6.33
2019-03-24T17:13:04.759Z,6.77
2019-03-24T17:15:34.159Z,7.43
2019-03-24T17:18:03.738Z,6.53
2019-03-24T17:20:33.124Z,7.40
2019-03-24T17:23:02.736Z,5.60
2019-03-24T17:25:32.113Z,6.77
2019-03-24T17:28:01.509Z,4.42
2019-03-24T17:30:30.892Z,7.63
2019-03-24T17:33:00.455Z,9.10
2019-03-24T17:35:30.523Z,8.40
2019-03-24T17:38:00.491Z,6.58
2019-03-24T17:40:29.859Z,8.57
2019-03-24T17:42:59.248Z,7.47
2019-03-24T17:45:28.655Z,5.70
2019-03-24T17:47:58.039Z,7.73
2019-03-24T17:50:27.424Z,6.92
2019-03-24T17:52:56.817Z,6.90
2019-03-24T17:55:27.977Z,7.07
2019-03-24T17:57:57.589Z,9.77
2019-03-24T18:00:40.723Z,5.77
2019-03-24T18:03:10.119Z,9.17
2019-03-24T18:05:39.748Z,9.23
2019-03-24T18:08:09.262Z,9.70
2019-03-24T18:10:38.660Z,6.60
2019-03-24T18:13:08.031Z,7.95
2019-03-24T18:15:37.415Z,10.47
2019-03-24T18:18:06.802Z,10.60
2019-03-24T18:20:37.093Z,4.80
2019-03-24T18:23:06.543Z,11.83
2019-03-24T18:25:35.872Z,8.27
2019-03-24T18:28:05.379Z,7.23
2019-03-24T18:30:34.839Z,5.90
2019-03-24T18:33:04.303Z,8.77
2019-03-24T18:35:34.079Z,5.80
2019-03-24T18:38:03.470Z,9.10
2019-03-24T18:40:32.840Z,10.40
2019-03-24T18:43:02.203Z,10.33
2019-03-24T18:45:31.829Z,9.57
2019-03-24T18:48:01.188Z,7.50
2019-03-24T18:50:30.851Z,6.87
2019-03-24T18:53:00.218Z,9.03
2019-03-24T18:55:29.595Z,10.37
2019-03-24T18:57:58.984Z,9.48
2019-03-24T19:00:28.373Z,11.53
2019-03-24T19:02:58.173Z,11.33
2019-03-24T19:05:28.314Z,12.23
2019-03-24T19:07:58.285Z,13.35
2019-03-24T19:10:28.319Z,11.45
2019-03-24T19:12:57.761Z,13.13
2019-03-24T19:15:27.149Z,10.80
2019-03-24T19:17:56.518Z,8.80
2019-03-24T19:20:25.888Z,9.00
2019-03-24T19:22:55.280Z,9.83
2019-03-24T19:25:24.662Z,6.80
2019-03-24T19:27:54.043Z,7.27
2019-03-24T19:30:33.235Z,8.83
2019-03-24T19:33:02.593Z,7.87
2019-03-24T19:35:31.987Z,7.83
2019-03-24T19:38:01.862Z,14.53
2019-03-24T19:40:33.203Z,13.97
2019-03-24T19:43:02.584Z,8.85
2019-03-24T19:45:31.965Z,11.50
2019-03-24T19:48:01.339Z,12.37
2019-03-24T19:50:30.712Z,8.83
2019-03-24T19:53:00.097Z,6.35
2019-03-24T19:55:29.469Z,6.95
2019-03-24T19:57:58.840Z,9.33
2019-03-24T20:00:28.220Z,10.80
2019-03-24T20:02:57.591Z,11.93
2019-03-24T20:05:27.104Z,10.77
2019-03-24T20:07:57.658Z,8.32
2019-03-24T20:10:27.701Z,7.00
2019-03-24T20:12:57.541Z,7.15
2019-03-24T20:15:27.492Z,12.35
2019-03-24T20:17:57.506Z,12.88
2019-03-24T20:20:26.891Z,7.53
2019-03-24T20:22:57.160Z,12.83
2019-03-24T20:25:26.810Z,8.73
2019-03-24T20:27:56.185Z,9.33
2019-03-24T20:30:25.561Z,7.60
2019-03-24T20:32:54.941Z,9.10
2019-03-24T20:35:24.571Z,5.27
2019-03-24T20:37:53.969Z,9.47
2019-03-24T20:40:23.337Z,7.97
2019-03-24T20:42:53.554Z,12.50
2019-03-24T20:45:22.918Z,7.17
2019-03-24T20:47:52.615Z,9.25
2019-03-24T20:50:22.326Z,11.43
2019-03-24T20:53:03.413Z,9.33
2019-03-24T20:55:23.144Z,8.80
2019-03-24T20:57:52.517Z,15.10
2019-03-24T21:00:31.738Z,11.20
2019-03-24T21:03:01.111Z,8.47
2019-03-24T21:05:30.482Z,16.10
2019-03-24T21:07:59.861Z,7.97
2019-03-24T21:10:29.244Z,11.47
2019-03-24T21:12:58.639Z,10.30
2019-03-24T21:15:28.006Z,12.63
2019-03-24T21:17:57.391Z,11.43
2019-03-24T21:20:27.022Z,7.97
2019-03-24T21:22:56.409Z,12.33
2019-03-24T21:25:25.823Z,13.17
2019-03-24T21:27:55.158Z,9.87
2019-03-24T21:30:36.959Z,12.10
2019-03-24T21:33:06.506Z,13.70
2019-03-24T21:35:35.952Z,11.50
2019-03-24T21:38:05.675Z,13.00
2019-03-24T21:40:35.118Z,11.33
2019-03-24T21:43:06.381Z,11.77
2019-03-24T21:45:35.774Z,18.40
2019-03-24T21:48:05.355Z,12.25
2019-03-24T21:50:34.795Z,8.77
2019-03-24T21:53:04.444Z,11.20
2019-03-24T21:55:33.797Z,9.07
2019-03-24T21:58:03.167Z,12.18
2019-03-24T22:00:34.736Z,11.90
2019-03-24T22:03:04.455Z,13.53
2019-03-24T22:05:34.093Z,7.97
2019-03-24T22:08:03.720Z,14.07
2019-03-24T22:10:33.086Z,12.10
2019-03-24T22:13:02.529Z,9.30
2019-03-24T22:15:32.200Z,9.88
2019-03-24T22:18:01.570Z,13.93
2019-03-24T22:20:30.936Z,13.70
2019-03-24T22:23:00.297Z,9.30
2019-03-24T22:25:29.665Z,11.53
2019-03-24T22:27:59.039Z,11.90
2019-03-24T22:30:29.434Z,8.30
2019-03-24T22:32:58.869Z,13.10
2019-03-24T22:35:28.812Z,15.83
2019-03-24T22:37:58.874Z,11.35
2019-03-24T22:40:28.946Z,10.98
2019-03-24T22:42:58.936Z,14.20
2019-03-24T22:45:29.173Z,14.50
2019-03-24T22:47:59.105Z,8.75
2019-03-24T22:50:29.351Z,11.78
2019-03-24T22:52:59.219Z,14.45
2019-03-24T22:55:29.209Z,12.78
2019-03-24T22:57:58.569Z,8.87
2019-03-24T23:00:45.824Z,9.00
2019-03-24T23:03:15.182Z,8.23
2019-03-24T23:05:44.625Z,9.43
2019-03-24T23:08:14.025Z,10.97
2019-03-24T23:10:43.398Z,9.63
2019-03-24T23:13:12.759Z,9.63
2019-03-24T23:15:42.414Z,11.27
2019-03-24T23:18:11.860Z,10.27
2019-03-24T23:20:41.238Z,6.53
2019-03-24T23:23:10.675Z,16.43
2019-03-24T23:25:40.053Z,10.13
2019-03-24T23:28:09.863Z,15.38
2019-03-24T23:30:39.922Z,7.03
2019-03-24T23:33:09.959Z,8.93
2019-03-24T23:35:40.113Z,15.03
2019-03-24T23:38:09.476Z,9.93
2019-03-24T23:40:39.087Z,10.27
2019-03-24T23:43:08.517Z,6.37
2019-03-24T23:45:37.894Z,10.70
2019-03-24T23:48:07.381Z,9.00
2019-03-24T23:50:36.712Z,11.73
2019-03-24T23:53:06.247Z,9.87
2019-03-24T23:55:35.695Z,12.83
2019-03-24T23:58:05.058Z,11.43
